sensor_id;sensor_type;location;lat;lon;timestamp;P1;durP1;ratioP1;P2;durP2;ratioP2
53843;SDS011;39744;53.314;5.710;2022-11-14T00:00:22;62.00;;;27.88;;
53843;SDS011;39744;53.314;5.710;2022-11-14T00:02:48;60.95;;;27.58;;
53843;SDS011;39744;53.314;5.710;2022-11-14T00:05:14;68.03;;;29.15;;
53843;SDS011;39744;53.314;5.710;2022-11-14T00:07:40;61.10;;;26.98;;
53843;SDS011;39744;53.314;5.710;2022-11-14T00:10:05;61.63;;;27.13;;
53843;SDS011;39744;53.314;5.710;2022-11-14T00:12:31;65.13;;;27.45;;
53843;SDS011;39744;53.314;5.710;2022-11-14T00:14:58;65.43;;;27.60;;
53843;SDS011;39744;53.314;5.710;2022-11-14T00:17:23;64.97;;;26.70;;
53843;SDS011;39744;53.314;5.710;2022-11-14T00:19:49;61.92;;;26.10;;
53843;SDS011;39744;53.314;5.710;2022-11-14T00:22:15;64.30;;;25.55;;
53843;SDS011;39744;53.314;5.710;2022-11-14T00:24:41;67.80;;;27.20;;
53843;SDS011;39744;53.314;5.710;2022-11-14T00:27:06;62.50;;;26.52;;
53843;SDS011;39744;53.314;5.710;2022-11-14T00:29:33;62.97;;;26.45;;
53843;SDS011;39744;53.314;5.710;2022-11-14T00:32:00;67.45;;;25.98;;
53843;SDS011;39744;53.314;5.710;2022-11-14T00:34:26;64.63;;;26.42;;
53843;SDS011;39744;53.314;5.710;2022-11-14T00:36:51;63.17;;;26.65;;
53843;SDS011;39744;53.314;5.710;2022-11-14T00:39:17;69.95;;;28.55;;
53843;SDS011;39744;53.314;5.710;2022-11-14T00:41:43;67.50;;;26.92;;
53843;SDS011;39744;53.314;5.710;2022-11-14T00:44:09;65.85;;;26.60;;
53843;SDS011;39744;53.314;5.710;2022-11-14T00:46:35;68.78;;;26.42;;
53843;SDS011;39744;53.314;5.710;2022-11-14T00:49:01;73.28;;;27.42;;
53843;SDS011;39744;53.314;5.710;2022-11-14T00:51:26;66.45;;;27.10;;
53843;SDS011;39744;53.314;5.710;2022-11-14T00:53:52;71.45;;;27.92;;
53843;SDS011;39744;53.314;5.710;2022-11-14T00:56:18;65.78;;;26.33;;
53843;SDS011;39744;53.314;5.710;2022-11-14T00:58:43;60.65;;;24.77;;
53843;SDS011;39744;53.314;5.710;2022-11-14T01:01:09;65.28;;;25.73;;
53843;SDS011;39744;53.314;5.710;2022-11-14T01:03:34;61.13;;;26.10;;
53843;SDS011;39744;53.314;5.710;2022-11-14T01:06:06;65.65;;;26.65;;
53843;SDS011;39744;53.314;5.710;2022-11-14T01:08:35;63.80;;;25.77;;
53843;SDS011;39744;53.314;5.710;2022-11-14T01:11:00;63.25;;;26.95;;
53843;SDS011;39744;53.314;5.710;2022-11-14T01:13:32;59.10;;;25.65;;
53843;SDS011;39744;53.314;5.710;2022-11-14T01:15:59;66.82;;;26.95;;
53843;SDS011;39744;53.314;5.710;2022-11-14T01:18:28;62.45;;;25.85;;
53843;SDS011;39744;53.314;5.710;2022-11-14T01:20:54;57.35;;;25.17;;
53843;SDS011;39744;53.314;5.710;2022-11-14T01:23:19;66.13;;;26.88;;
53843;SDS011;39744;53.314;5.710;2022-11-14T01:25:45;58.55;;;24.88;;
53843;SDS011;39744;53.314;5.710;2022-11-14T01:28:12;59.28;;;26.10;;
53843;SDS011;39744;53.314;5.710;2022-11-14T01:30:39;56.92;;;25.63;;
53843;SDS011;39744;53.314;5.710;2022-11-14T01:33:05;60.67;;;25.92;;
53843;SDS011;39744;53.314;5.710;2022-11-14T01:35:32;62.95;;;26.02;;
53843;SDS011;39744;53.314;5.710;2022-11-14T01:37:59;63.70;;;26.88;;
53843;SDS011;39744;53.314;5.710;2022-11-14T01:40:26;62.00;;;26.60;;
53843;SDS011;39744;53.314;5.710;2022-11-14T01:45:55;63.40;;;27.67;;
53843;SDS011;39744;53.314;5.710;2022-11-14T01:48:44;62.28;;;27.83;;
53843;SDS011;39744;53.314;5.710;2022-11-14T01:51:16;67.57;;;27.67;;
53843;SDS011;39744;53.314;5.710;2022-11-14T01:53:54;67.38;;;28.73;;
53843;SDS011;39744;53.314;5.710;2022-11-14T01:56:31;54.60;;;25.52;;
53843;SDS011;39744;53.314;5.710;2022-11-14T01:59:05;60.80;;;24.90;;
53843;SDS011;39744;53.314;5.710;2022-11-14T02:01:33;61.38;;;25.98;;
53843;SDS011;39744;53.314;5.710;2022-11-14T02:04:02;63.13;;;27.17;;
53843;SDS011;39744;53.314;5.710;2022-11-14T02:06:30;59.08;;;26.40;;
53843;SDS011;39744;53.314;5.710;2022-11-14T02:08:56;53.72;;;25.15;;
53843;SDS011;39744;53.314;5.710;2022-11-14T02:11:27;62.45;;;27.13;;
53843;SDS011;39744;53.314;5.710;2022-11-14T02:13:54;52.80;;;25.20;;
53843;SDS011;39744;53.314;5.710;2022-11-14T02:16:20;55.92;;;24.83;;
53843;SDS011;39744;53.314;5.710;2022-11-14T02:18:46;57.03;;;26.45;;
53843;SDS011;39744;53.314;5.710;2022-11-14T02:21:11;52.05;;;23.33;;
53843;SDS011;39744;53.314;5.710;2022-11-14T02:23:37;50.80;;;23.95;;
53843;SDS011;39744;53.314;5.710;2022-11-14T02:26:03;52.75;;;22.85;;
53843;SDS011;39744;53.314;5.710;2022-11-14T02:28:28;49.42;;;23.75;;
53843;SDS011;39744;53.314;5.710;2022-11-14T02:30:57;50.05;;;23.20;;
53843;SDS011;39744;53.314;5.710;2022-11-14T02:33:22;50.70;;;23.45;;
53843;SDS011;39744;53.314;5.710;2022-11-14T02:35:48;47.70;;;21.52;;
53843;SDS011;39744;53.314;5.710;2022-11-14T02:38:13;46.28;;;23.13;;
53843;SDS011;39744;53.314;5.710;2022-11-14T02:40:40;48.13;;;23.08;;
53843;SDS011;39744;53.314;5.710;2022-11-14T02:43:06;53.05;;;23.85;;
53843;SDS011;39744;53.314;5.710;2022-11-14T02:45:32;50.92;;;24.27;;
53843;SDS011;39744;53.314;5.710;2022-11-14T02:47:58;47.28;;;22.80;;
53843;SDS011;39744;53.314;5.710;2022-11-14T02:50:23;53.70;;;23.92;;
53843;SDS011;39744;53.314;5.710;2022-11-14T02:52:49;49.88;;;22.05;;
53843;SDS011;39744;53.314;5.710;2022-11-14T02:55:16;46.80;;;22.67;;
53843;SDS011;39744;53.314;5.710;2022-11-14T02:57:41;48.85;;;22.50;;
53843;SDS011;39744;53.314;5.710;2022-11-14T03:00:07;49.70;;;23.33;;
53843;SDS011;39744;53.314;5.710;2022-11-14T03:02:33;53.97;;;23.33;;
53843;SDS011;39744;53.314;5.710;2022-11-14T03:04:58;49.50;;;23.73;;
53843;SDS011;39744;53.314;5.710;2022-11-14T03:07:24;49.85;;;22.58;;
53843;SDS011;39744;53.314;5.710;2022-11-14T03:09:49;46.70;;;22.40;;
53843;SDS011;39744;53.314;5.710;2022-11-14T03:12:16;51.33;;;22.20;;
53843;SDS011;39744;53.314;5.710;2022-11-14T03:14:42;50.95;;;24.05;;
53843;SDS011;39744;53.314;5.710;2022-11-14T03:17:08;50.92;;;22.92;;
53843;SDS011;39744;53.314;5.710;2022-11-14T03:19:33;56.75;;;25.75;;
53843;SDS011;39744;53.314;5.710;2022-11-14T03:21:59;56.65;;;25.15;;
53843;SDS011;39744;53.314;5.710;2022-11-14T03:24:24;59.70;;;26.38;;
53843;SDS011;39744;53.314;5.710;2022-11-14T03:26:51;58.95;;;27.33;;
53843;SDS011;39744;53.314;5.710;2022-11-14T03:29:16;61.75;;;26.73;;
53843;SDS011;39744;53.314;5.710;2022-11-14T03:31:42;61.63;;;27.23;;
53843;SDS011;39744;53.314;5.710;2022-11-14T03:34:08;60.65;;;27.13;;
53843;SDS011;39744;53.314;5.710;2022-11-14T03:36:34;58.78;;;27.42;;
53843;SDS011;39744;53.314;5.710;2022-11-14T03:39:00;59.72;;;27.42;;
53843;SDS011;39744;53.314;5.710;2022-11-14T03:41:26;61.65;;;28.90;;
53843;SDS011;39744;53.314;5.710;2022-11-14T03:43:52;62.70;;;28.45;;
53843;SDS011;39744;53.314;5.710;2022-11-14T03:46:18;60.00;;;28.10;;
53843;SDS011;39744;53.314;5.710;2022-11-14T03:48:43;64.40;;;29.75;;
53843;SDS011;39744;53.314;5.710;2022-11-14T03:51:09;67.10;;;30.20;;
53843;SDS011;39744;53.314;5.710;2022-11-14T03:53:34;69.55;;;31.92;;
53843;SDS011;39744;53.314;5.710;2022-11-14T03:56:00;73.18;;;31.90;;
53843;SDS011;39744;53.314;5.710;2022-11-14T03:58:26;77.57;;;34.10;;
53843;SDS011;39744;53.314;5.710;2022-11-14T04:00:51;77.30;;;34.67;;
53843;SDS011;39744;53.314;5.710;2022-11-14T04:03:19;76.03;;;35.13;;
53843;SDS011;39744;53.314;5.710;2022-11-14T04:05:45;72.05;;;32.67;;
53843;SDS011;39744;53.314;5.710;2022-11-14T04:08:11;78.13;;;34.33;;
53843;SDS011;39744;53.314;5.710;2022-11-14T04:10:37;78.75;;;34.25;;
53843;SDS011;39744;53.314;5.710;2022-11-14T04:13:04;77.55;;;34.17;;
53843;SDS011;39744;53.314;5.710;2022-11-14T04:15:29;77.63;;;35.13;;
53843;SDS011;39744;53.314;5.710;2022-11-14T04:17:55;83.07;;;36.38;;
53843;SDS011;39744;53.314;5.710;2022-11-14T04:20:21;78.88;;;34.92;;
53843;SDS011;39744;53.314;5.710;2022-11-14T04:22:46;82.78;;;35.05;;
53843;SDS011;39744;53.314;5.710;2022-11-14T04:25:12;86.22;;;35.47;;
53843;SDS011;39744;53.314;5.710;2022-11-14T04:27:37;80.70;;;36.47;;
53843;SDS011;39744;53.314;5.710;2022-11-14T04:30:04;76.55;;;35.20;;
53843;SDS011;39744;53.314;5.710;2022-11-14T04:32:30;84.88;;;36.35;;
53843;SDS011;39744;53.314;5.710;2022-11-14T04:34:56;82.78;;;35.75;;
53843;SDS011;39744;53.314;5.710;2022-11-14T04:37:22;81.15;;;34.38;;
53843;SDS011;39744;53.314;5.710;2022-11-14T04:39:48;80.60;;;35.08;;
53843;SDS011;39744;53.314;5.710;2022-11-14T04:42:13;80.50;;;34.30;;
53843;SDS011;39744;53.314;5.710;2022-11-14T04:44:39;84.28;;;35.35;;
53843;SDS011;39744;53.314;5.710;2022-11-14T04:47:05;85.25;;;37.72;;
53843;SDS011;39744;53.314;5.710;2022-11-14T04:49:30;86.07;;;35.63;;
53843;SDS011;39744;53.314;5.710;2022-11-14T04:51:56;81.57;;;34.90;;
53843;SDS011;39744;53.314;5.710;2022-11-14T04:54:22;75.38;;;33.60;;
53843;SDS011;39744;53.314;5.710;2022-11-14T04:56:48;80.15;;;34.67;;
53843;SDS011;39744;53.314;5.710;2022-11-14T04:59:14;80.75;;;35.03;;
53843;SDS011;39744;53.314;5.710;2022-11-14T05:01:39;78.90;;;33.47;;
53843;SDS011;39744;53.314;5.710;2022-11-14T05:04:05;87.47;;;36.15;;
53843;SDS011;39744;53.314;5.710;2022-11-14T05:06:30;83.95;;;34.92;;
53843;SDS011;39744;53.314;5.710;2022-11-14T05:08:56;82.70;;;34.58;;
53843;SDS011;39744;53.314;5.710;2022-11-14T05:11:22;78.32;;;33.75;;
53843;SDS011;39744;53.314;5.710;2022-11-14T05:13:48;77.85;;;34.30;;
53843;SDS011;39744;53.314;5.710;2022-11-14T05:16:13;83.15;;;35.38;;
53843;SDS011;39744;53.314;5.710;2022-11-14T05:18:39;84.53;;;34.92;;
53843;SDS011;39744;53.314;5.710;2022-11-14T05:21:05;83.60;;;36.72;;
53843;SDS011;39744;53.314;5.710;2022-11-14T05:23:31;80.05;;;35.78;;
53843;SDS011;39744;53.314;5.710;2022-11-14T05:26:00;80.72;;;34.33;;
53843;SDS011;39744;53.314;5.710;2022-11-14T05:28:27;82.15;;;35.17;;
53843;SDS011;39744;53.314;5.710;2022-11-14T05:30:59;82.88;;;35.80;;
53843;SDS011;39744;53.314;5.710;2022-11-14T05:35:51;79.60;;;35.30;;
53843;SDS011;39744;53.314;5.710;2022-11-14T05:38:17;80.88;;;35.72;;
53843;SDS011;39744;53.314;5.710;2022-11-14T05:40:42;78.45;;;33.63;;
53843;SDS011;39744;53.314;5.710;2022-11-14T05:43:08;84.15;;;35.72;;
53843;SDS011;39744;53.314;5.710;2022-11-14T05:45:34;83.95;;;35.72;;
53843;SDS011;39744;53.314;5.710;2022-11-14T05:47:59;77.70;;;35.45;;
53843;SDS011;39744;53.314;5.710;2022-11-14T05:50:25;80.00;;;34.55;;
53843;SDS011;39744;53.314;5.710;2022-11-14T05:52:50;82.93;;;35.83;;
53843;SDS011;39744;53.314;5.710;2022-11-14T05:55:16;80.38;;;34.47;;
53843;SDS011;39744;53.314;5.710;2022-11-14T05:57:41;77.60;;;34.28;;
53843;SDS011;39744;53.314;5.710;2022-11-14T06:00:07;75.43;;;34.65;;
53843;SDS011;39744;53.314;5.710;2022-11-14T06:02:34;79.93;;;35.38;;
53843;SDS011;39744;53.314;5.710;2022-11-14T06:04:59;81.10;;;36.60;;
53843;SDS011;39744;53.314;5.710;2022-11-14T06:07:25;74.13;;;33.20;;
53843;SDS011;39744;53.314;5.710;2022-11-14T06:09:50;80.82;;;35.85;;
53843;SDS011;39744;53.314;5.710;2022-11-14T06:12:16;82.45;;;34.90;;
53843;SDS011;39744;53.314;5.710;2022-11-14T06:14:42;81.05;;;35.15;;
53843;SDS011;39744;53.314;5.710;2022-11-14T06:17:07;82.28;;;35.08;;
53843;SDS011;39744;53.314;5.710;2022-11-14T06:19:33;82.88;;;33.83;;
53843;SDS011;39744;53.314;5.710;2022-11-14T06:21:59;77.72;;;34.55;;
53843;SDS011;39744;53.314;5.710;2022-11-14T06:24:24;78.32;;;34.30;;
53843;SDS011;39744;53.314;5.710;2022-11-14T06:26:50;77.68;;;35.72;;
53843;SDS011;39744;53.314;5.710;2022-11-14T06:29:15;84.32;;;35.40;;
53843;SDS011;39744;53.314;5.710;2022-11-14T06:31:41;82.07;;;35.33;;
53843;SDS011;39744;53.314;5.710;2022-11-14T06:34:07;87.45;;;35.90;;
53843;SDS011;39744;53.314;5.710;2022-11-14T06:36:32;81.70;;;34.65;;
53843;SDS011;39744;53.314;5.710;2022-11-14T06:38:58;82.28;;;36.25;;
53843;SDS011;39744;53.314;5.710;2022-11-14T06:41:23;79.10;;;35.05;;
53843;SDS011;39744;53.314;5.710;2022-11-14T06:43:49;78.72;;;35.63;;
53843;SDS011;39744;53.314;5.710;2022-11-14T06:46:18;78.72;;;35.47;;
53843;SDS011;39744;53.314;5.710;2022-11-14T06:48:45;78.72;;;33.40;;
53843;SDS011;39744;53.314;5.710;2022-11-14T06:51:12;79.30;;;34.97;;
53843;SDS011;39744;53.314;5.710;2022-11-14T06:53:39;78.00;;;35.25;;
53843;SDS011;39744;53.314;5.710;2022-11-14T06:56:12;84.05;;;35.63;;
53843;SDS011;39744;53.314;5.710;2022-11-14T06:58:40;80.55;;;34.70;;
53843;SDS011;39744;53.314;5.710;2022-11-14T07:01:15;78.65;;;34.22;;
53843;SDS011;39744;53.314;5.710;2022-11-14T07:03:43;78.13;;;34.67;;
53843;SDS011;39744;53.314;5.710;2022-11-14T07:06:10;74.45;;;32.28;;
53843;SDS011;39744;53.314;5.710;2022-11-14T07:08:37;79.40;;;34.83;;
53843;SDS011;39744;53.314;5.710;2022-11-14T07:11:07;80.75;;;34.53;;
53843;SDS011;39744;53.314;5.710;2022-11-14T07:13:46;76.25;;;34.58;;
53843;SDS011;39744;53.314;5.710;2022-11-14T07:16:12;77.80;;;35.80;;
53843;SDS011;39744;53.314;5.710;2022-11-14T07:18:38;77.72;;;34.08;;
53843;SDS011;39744;53.314;5.710;2022-11-14T07:21:04;74.65;;;33.83;;
53843;SDS011;39744;53.314;5.710;2022-11-14T07:23:31;77.35;;;34.47;;
53843;SDS011;39744;53.314;5.710;2022-11-14T07:26:02;83.47;;;34.33;;
53843;SDS011;39744;53.314;5.710;2022-11-14T07:28:35;74.35;;;33.13;;
53843;SDS011;39744;53.314;5.710;2022-11-14T07:31:02;73.75;;;32.63;;
53843;SDS011;39744;53.314;5.710;2022-11-14T07:33:29;73.90;;;32.92;;
53843;SDS011;39744;53.314;5.710;2022-11-14T07:35:55;74.82;;;33.38;;
53843;SDS011;39744;53.314;5.710;2022-11-14T07:38:21;71.90;;;35.30;;
53843;SDS011;39744;53.314;5.710;2022-11-14T07:40:53;79.63;;;35.25;;
53843;SDS011;39744;53.314;5.710;2022-11-14T07:43:23;75.90;;;34.55;;
53843;SDS011;39744;53.314;5.710;2022-11-14T07:45:49;80.95;;;35.97;;
53843;SDS011;39744;53.314;5.710;2022-11-14T07:48:14;77.28;;;33.60;;
53843;SDS011;39744;53.314;5.710;2022-11-14T07:50:41;73.15;;;33.80;;
53843;SDS011;39744;53.314;5.710;2022-11-14T07:53:06;77.63;;;35.30;;
53843;SDS011;39744;53.314;5.710;2022-11-14T07:55:36;75.85;;;35.03;;
53843;SDS011;39744;53.314;5.710;2022-11-14T07:58:02;79.65;;;35.47;;
53843;SDS011;39744;53.314;5.710;2022-11-14T08:00:27;74.82;;;34.85;;
53843;SDS011;39744;53.314;5.710;2022-11-14T08:02:53;79.85;;;34.90;;
53843;SDS011;39744;53.314;5.710;2022-11-14T08:05:19;80.88;;;34.58;;
53843;SDS011;39744;53.314;5.710;2022-11-14T08:07:45;80.28;;;35.20;;
53843;SDS011;39744;53.314;5.710;2022-11-14T08:10:10;74.63;;;33.45;;
53843;SDS011;39744;53.314;5.710;2022-11-14T08:12:38;76.00;;;34.70;;
53843;SDS011;39744;53.314;5.710;2022-11-14T08:15:05;76.72;;;34.15;;
53843;SDS011;39744;53.314;5.710;2022-11-14T08:17:31;75.13;;;33.92;;
53843;SDS011;39744;53.314;5.710;2022-11-14T08:19:58;73.85;;;33.80;;
53843;SDS011;39744;53.314;5.710;2022-11-14T08:22:26;72.32;;;32.15;;
53843;SDS011;39744;53.314;5.710;2022-11-14T08:24:55;76.82;;;34.13;;
53843;SDS011;39744;53.314;5.710;2022-11-14T08:27:22;78.07;;;33.35;;
53843;SDS011;39744;53.314;5.710;2022-11-14T08:29:48;77.15;;;33.25;;
53843;SDS011;39744;53.314;5.710;2022-11-14T08:32:15;80.35;;;34.88;;
53843;SDS011;39744;53.314;5.710;2022-11-14T08:34:41;77.82;;;32.40;;
53843;SDS011;39744;53.314;5.710;2022-11-14T08:37:07;77.75;;;33.67;;
53843;SDS011;39744;53.314;5.710;2022-11-14T08:39:32;78.40;;;34.38;;
53843;SDS011;39744;53.314;5.710;2022-11-14T08:41:59;82.13;;;35.30;;
53843;SDS011;39744;53.314;5.710;2022-11-14T08:44:25;89.30;;;36.65;;
53843;SDS011;39744;53.314;5.710;2022-11-14T08:46:50;84.28;;;34.95;;
53843;SDS011;39744;53.314;5.710;2022-11-14T08:49:16;83.70;;;34.78;;
53843;SDS011;39744;53.314;5.710;2022-11-14T08:51:42;78.78;;;34.60;;
53843;SDS011;39744;53.314;5.710;2022-11-14T08:54:11;81.53;;;33.88;;
53843;SDS011;39744;53.314;5.710;2022-11-14T08:56:36;80.45;;;34.08;;
53843;SDS011;39744;53.314;5.710;2022-11-14T08:59:03;83.45;;;34.80;;
53843;SDS011;39744;53.314;5.710;2022-11-14T09:01:29;79.82;;;34.10;;
53843;SDS011;39744;53.314;5.710;2022-11-14T09:03:59;86.90;;;35.50;;
53843;SDS011;39744;53.314;5.710;2022-11-14T09:06:24;83.63;;;35.28;;
53843;SDS011;39744;53.314;5.710;2022-11-14T09:08:50;82.65;;;36.25;;
53843;SDS011;39744;53.314;5.710;2022-11-14T09:11:17;86.72;;;35.25;;
53843;SDS011;39744;53.314;5.710;2022-11-14T09:13:42;82.35;;;35.08;;
53843;SDS011;39744;53.314;5.710;2022-11-14T09:16:08;86.18;;;34.35;;
53843;SDS011;39744;53.314;5.710;2022-11-14T09:18:34;82.40;;;33.95;;
53843;SDS011;39744;53.314;5.710;2022-11-14T09:21:04;80.15;;;35.28;;
53843;SDS011;39744;53.314;5.710;2022-11-14T09:23:31;79.22;;;34.78;;
53843;SDS011;39744;53.314;5.710;2022-11-14T09:26:02;85.97;;;37.38;;
53843;SDS011;39744;53.314;5.710;2022-11-14T09:28:31;81.78;;;35.00;;
53843;SDS011;39744;53.314;5.710;2022-11-14T09:31:04;80.35;;;33.40;;
53843;SDS011;39744;53.314;5.710;2022-11-14T09:33:34;83.57;;;34.45;;
53843;SDS011;39744;53.314;5.710;2022-11-14T09:36:04;82.03;;;33.83;;
53843;SDS011;39744;53.314;5.710;2022-11-14T09:38:31;77.93;;;34.55;;
53843;SDS011;39744;53.314;5.710;2022-11-14T09:41:01;74.68;;;33.72;;
53843;SDS011;39744;53.314;5.710;2022-11-14T09:44:03;77.80;;;33.40;;
53843;SDS011;39744;53.314;5.710;2022-11-14T09:46:55;70.90;;;32.45;;
53843;SDS011;39744;53.314;5.710;2022-11-14T09:49:29;73.88;;;33.28;;
53843;SDS011;39744;53.314;5.710;2022-11-14T09:52:31;77.68;;;33.25;;
53843;SDS011;39744;53.314;5.710;2022-11-14T09:55:13;74.53;;;32.88;;
53843;SDS011;39744;53.314;5.710;2022-11-14T09:57:40;71.22;;;31.55;;
53843;SDS011;39744;53.314;5.710;2022-11-14T10:00:50;74.18;;;31.75;;
53843;SDS011;39744;53.314;5.710;2022-11-14T10:03:15;76.32;;;32.05;;
53843;SDS011;39744;53.314;5.710;2022-11-14T10:06:08;70.75;;;31.80;;
53843;SDS011;39744;53.314;5.710;2022-11-14T10:08:54;63.70;;;29.65;;
53843;SDS011;39744;53.314;5.710;2022-11-14T10:12:17;67.13;;;30.33;;
53843;SDS011;39744;53.314;5.710;2022-11-14T10:15:07;67.03;;;31.25;;
53843;SDS011;39744;53.314;5.710;2022-11-14T10:17:52;72.20;;;31.60;;
53843;SDS011;39744;53.314;5.710;2022-11-14T10:20:45;65.32;;;30.33;;
53843;SDS011;39744;53.314;5.710;2022-11-14T10:26:28;66.45;;;28.63;;
53843;SDS011;39744;53.314;5.710;2022-11-14T10:28:59;63.63;;;29.30;;
53843;SDS011;39744;53.314;5.710;2022-11-14T10:34:29;64.60;;;29.35;;
53843;SDS011;39744;53.314;5.710;2022-11-14T10:36:58;66.90;;;30.02;;
53843;SDS011;39744;53.314;5.710;2022-11-14T10:39:41;67.53;;;30.70;;
53843;SDS011;39744;53.314;5.710;2022-11-14T10:42:38;60.92;;;28.85;;
53843;SDS011;39744;53.314;5.710;2022-11-14T10:45:20;66.53;;;31.23;;
53843;SDS011;39744;53.314;5.710;2022-11-14T10:47:50;73.40;;;30.85;;
53843;SDS011;39744;53.314;5.710;2022-11-14T10:50:21;63.95;;;30.00;;
53843;SDS011;39744;53.314;5.710;2022-11-14T10:52:51;67.97;;;29.90;;
53843;SDS011;39744;53.314;5.710;2022-11-14T10:55:23;58.53;;;28.70;;
53843;SDS011;39744;53.314;5.710;2022-11-14T10:57:52;63.60;;;29.98;;
53843;SDS011;39744;53.314;5.710;2022-11-14T11:00:18;56.72;;;27.48;;
53843;SDS011;39744;53.314;5.710;2022-11-14T11:02:53;58.38;;;28.42;;
53843;SDS011;39744;53.314;5.710;2022-11-14T11:05:22;62.80;;;28.25;;
53843;SDS011;39744;53.314;5.710;2022-11-14T11:07:52;58.78;;;28.05;;
53843;SDS011;39744;53.314;5.710;2022-11-14T11:10:40;55.30;;;26.27;;
53843;SDS011;39744;53.314;5.710;2022-11-14T11:13:32;59.10;;;27.98;;
53843;SDS011;39744;53.314;5.710;2022-11-14T11:16:12;55.38;;;28.17;;
53843;SDS011;39744;53.314;5.710;2022-11-14T11:18:37;53.60;;;27.35;;
53843;SDS011;39744;53.314;5.710;2022-11-14T11:21:04;55.65;;;26.40;;
53843;SDS011;39744;53.314;5.710;2022-11-14T11:23:33;57.97;;;27.17;;
53843;SDS011;39744;53.314;5.710;2022-11-14T11:26:06;51.15;;;25.52;;
53843;SDS011;39744;53.314;5.710;2022-11-14T11:28:40;51.78;;;26.00;;
53843;SDS011;39744;53.314;5.710;2022-11-14T11:31:07;54.75;;;27.38;;
53843;SDS011;39744;53.314;5.710;2022-11-14T11:33:35;51.95;;;25.88;;
53843;SDS011;39744;53.314;5.710;2022-11-14T11:38:30;47.33;;;25.40;;
53843;SDS011;39744;53.314;5.710;2022-11-14T11:40:58;52.88;;;26.30;;
53843;SDS011;39744;53.314;5.710;2022-11-14T11:43:49;50.38;;;25.25;;
53843;SDS011;39744;53.314;5.710;2022-11-14T11:46:17;49.80;;;24.95;;
53843;SDS011;39744;53.314;5.710;2022-11-14T11:48:54;50.47;;;24.80;;
53843;SDS011;39744;53.314;5.710;2022-11-14T11:51:26;49.35;;;24.25;;
53843;SDS011;39744;53.314;5.710;2022-11-14T11:54:03;52.17;;;26.83;;
53843;SDS011;39744;53.314;5.710;2022-11-14T11:56:30;46.97;;;23.75;;
53843;SDS011;39744;53.314;5.710;2022-11-14T11:59:16;50.28;;;25.63;;
53843;SDS011;39744;53.314;5.710;2022-11-14T12:01:45;48.67;;;25.50;;
53843;SDS011;39744;53.314;5.710;2022-11-14T12:04:11;49.85;;;24.63;;
53843;SDS011;39744;53.314;5.710;2022-11-14T12:06:40;48.10;;;25.13;;
53843;SDS011;39744;53.314;5.710;2022-11-14T12:09:14;49.03;;;25.33;;
53843;SDS011;39744;53.314;5.710;2022-11-14T12:11:44;47.65;;;25.10;;
53843;SDS011;39744;53.314;5.710;2022-11-14T12:17:06;47.95;;;24.65;;
53843;SDS011;39744;53.314;5.710;2022-11-14T12:19:48;46.33;;;23.95;;
53843;SDS011;39744;53.314;5.710;2022-11-14T12:22:28;51.03;;;24.63;;
53843;SDS011;39744;53.314;5.710;2022-11-14T12:30:11;45.47;;;24.15;;
53843;SDS011;39744;53.314;5.710;2022-11-14T12:32:46;46.40;;;24.55;;
53843;SDS011;39744;53.314;5.710;2022-11-14T12:35:35;43.85;;;23.75;;
53843;SDS011;39744;53.314;5.710;2022-11-14T12:38:01;48.65;;;24.05;;
53843;SDS011;39744;53.314;5.710;2022-11-14T12:40:36;45.15;;;23.98;;
53843;SDS011;39744;53.314;5.710;2022-11-14T12:43:03;45.55;;;25.35;;
53843;SDS011;39744;53.314;5.710;2022-11-14T12:48:27;47.30;;;23.88;;
53843;SDS011;39744;53.314;5.710;2022-11-14T12:50:57;45.55;;;23.75;;
53843;SDS011;39744;53.314;5.710;2022-11-14T13:06:06;45.95;;;24.60;;
53843;SDS011;39744;53.314;5.710;2022-11-14T13:14:22;49.78;;;25.50;;
53843;SDS011;39744;53.314;5.710;2022-11-14T13:23:04;45.40;;;23.70;;
53843;SDS011;39744;53.314;5.710;2022-11-14T13:25:31;42.35;;;23.52;;
53843;SDS011;39744;53.314;5.710;2022-11-14T13:28:07;45.67;;;23.65;;
53843;SDS011;39744;53.314;5.710;2022-11-14T13:33:44;45.78;;;24.38;;
53843;SDS011;39744;53.314;5.710;2022-11-14T13:36:15;44.78;;;24.88;;
53843;SDS011;39744;53.314;5.710;2022-11-14T13:41:33;45.50;;;23.67;;
53843;SDS011;39744;53.314;5.710;2022-11-14T13:51:28;42.97;;;23.35;;
53843;SDS011;39744;53.314;5.710;2022-11-14T13:53:54;42.65;;;23.45;;
53843;SDS011;39744;53.314;5.710;2022-11-14T13:56:33;46.83;;;24.23;;
53843;SDS011;39744;53.314;5.710;2022-11-14T14:04:05;46.72;;;24.58;;
53843;SDS011;39744;53.314;5.710;2022-11-14T14:22:15;44.58;;;24.77;;
53843;SDS011;39744;53.314;5.710;2022-11-14T14:24:55;48.38;;;24.13;;
53843;SDS011;39744;53.314;5.710;2022-11-14T14:32:23;44.00;;;25.10;;
53843;SDS011;39744;53.314;5.710;2022-11-14T14:34:49;48.92;;;24.65;;
53843;SDS011;39744;53.314;5.710;2022-11-14T14:37:18;44.63;;;23.75;;
53843;SDS011;39744;53.314;5.710;2022-11-14T14:39:55;50.15;;;24.52;;
53843;SDS011;39744;53.314;5.710;2022-11-14T14:42:21;47.38;;;23.38;;
53843;SDS011;39744;53.314;5.710;2022-11-14T14:44:48;47.20;;;23.58;;
53843;SDS011;39744;53.314;5.710;2022-11-14T14:47:15;46.72;;;24.92;;
53843;SDS011;39744;53.314;5.710;2022-11-14T14:49:41;45.20;;;24.17;;
53843;SDS011;39744;53.314;5.710;2022-11-14T14:54:53;44.65;;;24.67;;
53843;SDS011;39744;53.314;5.710;2022-11-14T14:57:20;44.13;;;22.88;;
53843;SDS011;39744;53.314;5.710;2022-11-14T14:59:46;49.72;;;25.42;;
53843;SDS011;39744;53.314;5.710;2022-11-14T15:02:15;44.83;;;24.10;;
53843;SDS011;39744;53.314;5.710;2022-11-14T15:04:42;41.67;;;23.27;;
53843;SDS011;39744;53.314;5.710;2022-11-14T15:10:04;46.78;;;24.45;;
53843;SDS011;39744;53.314;5.710;2022-11-14T15:12:32;43.50;;;23.08;;
53843;SDS011;39744;53.314;5.710;2022-11-14T15:14:59;44.78;;;22.90;;
53843;SDS011;39744;53.314;5.710;2022-11-14T15:17:25;45.22;;;22.63;;
53843;SDS011;39744;53.314;5.710;2022-11-14T15:19:52;43.75;;;23.73;;
53843;SDS011;39744;53.314;5.710;2022-11-14T15:27:29;41.83;;;22.35;;
53843;SDS011;39744;53.314;5.710;2022-11-14T15:29:58;43.47;;;22.13;;
53843;SDS011;39744;53.314;5.710;2022-11-14T15:32:25;41.33;;;22.58;;
53843;SDS011;39744;53.314;5.710;2022-11-14T15:35:08;44.03;;;23.52;;
53843;SDS011;39744;53.314;5.710;2022-11-14T15:37:35;43.33;;;22.33;;
53843;SDS011;39744;53.314;5.710;2022-11-14T15:40:17;42.55;;;22.23;;
53843;SDS011;39744;53.314;5.710;2022-11-14T15:42:44;39.88;;;22.50;;
53843;SDS011;39744;53.314;5.710;2022-11-14T15:45:23;40.67;;;22.55;;
53843;SDS011;39744;53.314;5.710;2022-11-14T15:47:58;42.22;;;21.80;;
53843;SDS011;39744;53.314;5.710;2022-11-14T15:50:30;42.80;;;23.05;;
53843;SDS011;39744;53.314;5.710;2022-11-14T15:52:58;41.85;;;22.20;;
53843;SDS011;39744;53.314;5.710;2022-11-14T15:55:25;44.15;;;22.55;;
53843;SDS011;39744;53.314;5.710;2022-11-14T15:57:51;40.30;;;21.83;;
53843;SDS011;39744;53.314;5.710;2022-11-14T16:00:17;46.28;;;23.70;;
53843;SDS011;39744;53.314;5.710;2022-11-14T16:02:53;46.58;;;23.50;;
53843;SDS011;39744;53.314;5.710;2022-11-14T16:05:23;43.60;;;22.40;;
53843;SDS011;39744;53.314;5.710;2022-11-14T16:07:50;46.92;;;23.63;;
53843;SDS011;39744;53.314;5.710;2022-11-14T16:10:20;49.92;;;24.50;;